sensor_id;sensor_type;location;lat;lon;timestamp;temperature;humidity
19033;DHT22;9649;51.042;13.804;2023-05-19T00:00:13;12.30;99.90
19033;DHT22;9649;51.042;13.804;2023-05-19T00:05:18;12.20;99.90
19033;DHT22;9649;51.042;13.804;2023-05-19T00:10:22;12.20;99.90
19033;DHT22;9649;51.042;13.804;2023-05-19T00:15:25;12.20;1.00
19033;DHT22;9649;51.042;13.804;2023-05-19T00:20:29;12.10;1.00
19033;DHT22;9649;51.042;13.804;2023-05-19T00:25:32;12.00;1.00
19033;DHT22;9649;51.042;13.804;2023-05-19T00:30:35;11.80;1.00
19033;DHT22;9649;51.042;13.804;2023-05-19T00:35:39;11.60;1.00
19033;DHT22;9649;51.042;13.804;2023-05-19T00:40:42;11.30;1.00
19033;DHT22;9649;51.042;13.804;2023-05-19T00:45:45;11.10;1.00
19033;DHT22;9649;51.042;13.804;2023-05-19T00:50:49;10.80;1.00
19033;DHT22;9649;51.042;13.804;2023-05-19T00:55:52;10.60;99.90
19033;DHT22;9649;51.042;13.804;2023-05-19T01:00:56;10.50;1.00
19033;DHT22;9649;51.042;13.804;2023-05-19T01:06:06;10.50;99.90
19033;DHT22;9649;51.042;13.804;2023-05-19T01:11:09;10.40;29.30
19033;DHT22;9649;51.042;13.804;2023-05-19T01:16:18;10.40;1.00
19033;DHT22;9649;51.042;13.804;2023-05-19T01:21:52;10.30;99.90
19033;DHT22;9649;51.042;13.804;2023-05-19T01:27:13;10.20;1.00
19033;DHT22;9649;51.042;13.804;2023-05-19T01:32:24;10.10;99.90
19033;DHT22;9649;51.042;13.804;2023-05-19T01:37:28;10.00;1.00
19033;DHT22;9649;51.042;13.804;2023-05-19T01:42:31;9.90;1.00
19033;DHT22;9649;51.042;13.804;2023-05-19T01:47:45;9.80;10.30
19033;DHT22;9649;51.042;13.804;2023-05-19T01:52:49;9.60;99.90
19033;DHT22;9649;51.042;13.804;2023-05-19T01:58:00;9.60;1.00
19033;DHT22;9649;51.042;13.804;2023-05-19T02:03:16;9.60;99.90
19033;DHT22;9649;51.042;13.804;2023-05-19T02:08:29;9.60;1.00
19033;DHT22;9649;51.042;13.804;2023-05-19T02:13:36;9.50;1.00
19033;DHT22;9649;51.042;13.804;2023-05-19T02:18:44;9.40;1.00
19033;DHT22;9649;51.042;13.804;2023-05-19T02:23:49;9.40;1.00
19033;DHT22;9649;51.042;13.804;2023-05-19T02:29:00;9.30;1.00
19033;DHT22;9649;51.042;13.804;2023-05-19T02:34:05;9.30;1.00
19033;DHT22;9649;51.042;13.804;2023-05-19T02:39:09;9.40;1.00
19033;DHT22;9649;51.042;13.804;2023-05-19T02:44:12;9.40;1.00
19033;DHT22;9649;51.042;13.804;2023-05-19T02:49:16;9.60;1.00
19033;DHT22;9649;51.042;13.804;2023-05-19T02:54:19;9.60;1.00
19033;DHT22;9649;51.042;13.804;2023-05-19T02:59:22;9.70;1.00
19033;DHT22;9649;51.042;13.804;2023-05-19T03:04:27;9.80;1.00
19033;DHT22;9649;51.042;13.804;2023-05-19T03:09:30;9.70;1.00
19033;DHT22;9649;51.042;13.804;2023-05-19T03:14:34;9.50;1.00
19033;DHT22;9649;51.042;13.804;2023-05-19T03:19:40;9.30;1.00
19033;DHT22;9649;51.042;13.804;2023-05-19T03:24:43;9.20;1.00
19033;DHT22;9649;51.042;13.804;2023-05-19T03:29:45;9.20;1.00
19033;DHT22;9649;51.042;13.804;2023-05-19T03:34:49;9.70;1.00
19033;DHT22;9649;51.042;13.804;2023-05-19T03:39:53;9.80;1.00
19033;DHT22;9649;51.042;13.804;2023-05-19T03:44:55;9.80;1.00
19033;DHT22;9649;51.042;13.804;2023-05-19T03:49:59;9.70;1.00
19033;DHT22;9649;51.042;13.804;2023-05-19T03:55:03;9.70;1.00
19033;DHT22;9649;51.042;13.804;2023-05-19T04:00:06;9.80;1.00
19033;DHT22;9649;51.042;13.804;2023-05-19T04:05:13;9.80;1.00
19033;DHT22;9649;51.042;13.804;2023-05-19T04:10:15;10.00;1.00
19033;DHT22;9649;51.042;13.804;2023-05-19T04:15:18;10.00;1.00
19033;DHT22;9649;51.042;13.804;2023-05-19T04:20:23;10.10;1.00
19033;DHT22;9649;51.042;13.804;2023-05-19T04:25:26;10.30;1.00
19033;DHT22;9649;51.042;13.804;2023-05-19T04:30:29;10.40;1.00
19033;DHT22;9649;51.042;13.804;2023-05-19T04:35:33;10.60;1.00
19033;DHT22;9649;51.042;13.804;2023-05-19T04:40:38;10.80;1.00
19033;DHT22;9649;51.042;13.804;2023-05-19T04:45:43;11.00;99.90
19033;DHT22;9649;51.042;13.804;2023-05-19T04:50:48;11.20;1.00
19033;DHT22;9649;51.042;13.804;2023-05-19T04:55:52;11.50;59.60
19033;DHT22;9649;51.042;13.804;2023-05-19T05:00:55;11.80;1.00
19033;DHT22;9649;51.042;13.804;2023-05-19T05:05:59;12.10;1.00
19033;DHT22;9649;51.042;13.804;2023-05-19T05:11:03;12.50;99.90
19033;DHT22;9649;51.042;13.804;2023-05-19T05:16:06;12.90;1.00
19033;DHT22;9649;51.042;13.804;2023-05-19T05:21:11;13.10;1.00
19033;DHT22;9649;51.042;13.804;2023-05-19T05:26:17;13.40;1.00
19033;DHT22;9649;51.042;13.804;2023-05-19T05:31:20;13.60;63.50
19033;DHT22;9649;51.042;13.804;2023-05-19T05:36:24;14.00;1.00
19033;DHT22;9649;51.042;13.804;2023-05-19T05:41:27;14.40;1.00
19033;DHT22;9649;51.042;13.804;2023-05-19T05:46:35;14.70;99.90
19033;DHT22;9649;51.042;13.804;2023-05-19T05:51:40;14.90;47.80
19033;DHT22;9649;51.042;13.804;2023-05-19T05:56:55;14.90;1.00
19033;DHT22;9649;51.042;13.804;2023-05-19T06:01:58;15.20;1.00
19033;DHT22;9649;51.042;13.804;2023-05-19T06:07:02;15.60;1.00
19033;DHT22;9649;51.042;13.804;2023-05-19T06:12:05;15.70;1.00
19033;DHT22;9649;51.042;13.804;2023-05-19T06:17:08;16.40;1.00
19033;DHT22;9649;51.042;13.804;2023-05-19T06:22:13;17.00;99.90
19033;DHT22;9649;51.042;13.804;2023-05-19T06:27:15;17.20;99.90
19033;DHT22;9649;51.042;13.804;2023-05-19T06:32:18;17.10;99.90
19033;DHT22;9649;51.042;13.804;2023-05-19T06:37:22;17.00;99.90
19033;DHT22;9649;51.042;13.804;2023-05-19T06:42:25;17.30;99.90
19033;DHT22;9649;51.042;13.804;2023-05-19T06:47:28;17.30;99.90
19033;DHT22;9649;51.042;13.804;2023-05-19T06:52:32;17.50;99.90
19033;DHT22;9649;51.042;13.804;2023-05-19T06:57:35;18.40;15.10
19033;DHT22;9649;51.042;13.804;2023-05-19T07:02:38;18.20;1.00
19033;DHT22;9649;51.042;13.804;2023-05-19T07:07:42;18.20;1.00
19033;DHT22;9649;51.042;13.804;2023-05-19T07:12:45;18.50;1.00
19033;DHT22;9649;51.042;13.804;2023-05-19T07:17:48;18.10;1.00
19033;DHT22;9649;51.042;13.804;2023-05-19T07:22:52;18.60;1.00
19033;DHT22;9649;51.042;13.804;2023-05-19T07:27:54;19.40;1.00
19033;DHT22;9649;51.042;13.804;2023-05-19T07:32:57;20.00;1.00
19033;DHT22;9649;51.042;13.804;2023-05-19T07:38:04;19.70;1.00
19033;DHT22;9649;51.042;13.804;2023-05-19T07:43:07;19.10;1.00
19033;DHT22;9649;51.042;13.804;2023-05-19T07:48:11;18.60;1.00
19033;DHT22;9649;51.042;13.804;2023-05-19T07:53:16;18.10;1.00
19033;DHT22;9649;51.042;13.804;2023-05-19T07:58:18;18.10;1.00
19033;DHT22;9649;51.042;13.804;2023-05-19T08:03:21;18.20;1.00
19033;DHT22;9649;51.042;13.804;2023-05-19T08:08:26;18.20;1.00
19033;DHT22;9649;51.042;13.804;2023-05-19T08:13:29;18.20;1.00
19033;DHT22;9649;51.042;13.804;2023-05-19T08:18:31;18.10;1.00
19033;DHT22;9649;51.042;13.804;2023-05-19T08:23:35;18.60;1.00
19033;DHT22;9649;51.042;13.804;2023-05-19T08:28:39;19.20;1.00
19033;DHT22;9649;51.042;13.804;2023-05-19T08:33:41;19.60;1.00
19033;DHT22;9649;51.042;13.804;2023-05-19T08:38:46;20.40;1.00
19033;DHT22;9649;51.042;13.804;2023-05-19T08:43:48;20.70;1.00
19033;DHT22;9649;51.042;13.804;2023-05-19T08:48:53;20.60;1.00
19033;DHT22;9649;51.042;13.804;2023-05-19T08:54:06;21.00;1.00
19033;DHT22;9649;51.042;13.804;2023-05-19T08:59:11;22.90;1.00
19033;DHT22;9649;51.042;13.804;2023-05-19T09:04:15;26.90;1.00
19033;DHT22;9649;51.042;13.804;2023-05-19T09:09:19;28.00;99.90
19033;DHT22;9649;51.042;13.804;2023-05-19T09:14:22;29.90;99.90
19033;DHT22;9649;51.042;13.804;2023-05-19T09:19:28;32.00;99.90
19033;DHT22;9649;51.042;13.804;2023-05-19T09:24:33;30.80;99.90
19033;DHT22;9649;51.042;13.804;2023-05-19T09:29:36;31.80;99.90
19033;DHT22;9649;51.042;13.804;2023-05-19T09:34:40;29.60;99.90
19033;DHT22;9649;51.042;13.804;2023-05-19T09:39:44;27.40;99.90
19033;DHT22;9649;51.042;13.804;2023-05-19T09:44:49;26.90;99.90
19033;DHT22;9649;51.042;13.804;2023-05-19T09:49:52;27.90;99.90
19033;DHT22;9649;51.042;13.804;2023-05-19T09:54:57;29.00;99.90
19033;DHT22;9649;51.042;13.804;2023-05-19T10:00:02;31.00;99.90
19033;DHT22;9649;51.042;13.804;2023-05-19T10:05:13;33.30;99.90
19033;DHT22;9649;51.042;13.804;2023-05-19T10:10:20;34.90;99.90
19033;DHT22;9649;51.042;13.804;2023-05-19T10:15:24;34.60;99.90
19033;DHT22;9649;51.042;13.804;2023-05-19T10:20:28;36.30;99.90
19033;DHT22;9649;51.042;13.804;2023-05-19T10:25:34;37.30;99.90
19033;DHT22;9649;51.042;13.804;2023-05-19T10:30:40;39.20;99.90
19033;DHT22;9649;51.042;13.804;2023-05-19T10:36:08;41.40;99.90
19033;DHT22;9649;51.042;13.804;2023-05-19T10:41:23;42.80;99.90
19033;DHT22;9649;51.042;13.804;2023-05-19T10:46:29;42.40;99.90
19033;DHT22;9649;51.042;13.804;2023-05-19T10:51:32;42.30;99.90
19033;DHT22;9649;51.042;13.804;2023-05-19T10:56:38;42.00;99.90
19033;DHT22;9649;51.042;13.804;2023-05-19T11:01:43;41.90;99.90
19033;DHT22;9649;51.042;13.804;2023-05-19T11:06:50;41.00;99.90
19033;DHT22;9649;51.042;13.804;2023-05-19T11:11:55;41.40;99.90
19033;DHT22;9649;51.042;13.804;2023-05-19T11:16:59;43.20;99.90
19033;DHT22;9649;51.042;13.804;2023-05-19T11:22:09;43.00;99.90
19033;DHT22;9649;51.042;13.804;2023-05-19T11:27:24;41.10;99.90
19033;DHT22;9649;51.042;13.804;2023-05-19T11:32:28;40.80;99.90
19033;DHT22;9649;51.042;13.804;2023-05-19T11:37:31;39.40;99.90
19033;DHT22;9649;51.042;13.804;2023-05-19T11:42:36;39.90;99.90
19033;DHT22;9649;51.042;13.804;2023-05-19T11:47:39;41.60;99.90
19033;DHT22;9649;51.042;13.804;2023-05-19T11:53:02;42.10;99.90
19033;DHT22;9649;51.042;13.804;2023-05-19T11:58:07;41.80;99.90
19033;DHT22;9649;51.042;13.804;2023-05-19T12:03:09;42.00;99.90
19033;DHT22;9649;51.042;13.804;2023-05-19T12:08:12;41.80;99.90
19033;DHT22;9649;51.042;13.804;2023-05-19T12:13:18;41.90;99.90
19033;DHT22;9649;51.042;13.804;2023-05-19T12:18:28;42.10;99.90
19033;DHT22;9649;51.042;13.804;2023-05-19T12:23:31;40.40;99.90
19033;DHT22;9649;51.042;13.804;2023-05-19T12:28:36;37.10;99.90
19033;DHT22;9649;51.042;13.804;2023-05-19T12:33:39;36.70;99.90
19033;DHT22;9649;51.042;13.804;2023-05-19T12:38:42;38.30;99.90
19033;DHT22;9649;51.042;13.804;2023-05-19T12:43:46;40.10;99.90
19033;DHT22;9649;51.042;13.804;2023-05-19T12:48:49;37.90;99.90
19033;DHT22;9649;51.042;13.804;2023-05-19T12:53:52;38.30;99.90
19033;DHT22;9649;51.042;13.804;2023-05-19T12:58:56;35.80;99.90
19033;DHT22;9649;51.042;13.804;2023-05-19T13:03:59;34.60;99.90
19033;DHT22;9649;51.042;13.804;2023-05-19T13:09:05;37.00;99.90
19033;DHT22;9649;51.042;13.804;2023-05-19T13:14:09;38.20;99.90
19033;DHT22;9649;51.042;13.804;2023-05-19T13:19:13;38.50;99.90
19033;DHT22;9649;51.042;13.804;2023-05-19T13:24:26;39.40;99.90
19033;DHT22;9649;51.042;13.804;2023-05-19T13:29:30;37.60;99.90
19033;DHT22;9649;51.042;13.804;2023-05-19T13:34:32;38.40;99.90
19033;DHT22;9649;51.042;13.804;2023-05-19T13:39:35;38.20;99.90
19033;DHT22;9649;51.042;13.804;2023-05-19T13:44:40;35.10;99.90
19033;DHT22;9649;51.042;13.804;2023-05-19T13:49:42;32.90;99.90
19033;DHT22;9649;51.042;13.804;2023-05-19T13:54:45;32.00;99.90
19033;DHT22;9649;51.042;13.804;2023-05-19T13:59:50;30.10;99.90
19033;DHT22;9649;51.042;13.804;2023-05-19T14:05:04;30.90;99.90
19033;DHT22;9649;51.042;13.804;2023-05-19T14:10:08;28.00;99.90
19033;DHT22;9649;51.042;13.804;2023-05-19T14:15:12;27.00;99.90
19033;DHT22;9649;51.042;13.804;2023-05-19T14:20:15;25.90;99.90
19033;DHT22;9649;51.042;13.804;2023-05-19T14:25:18;25.70;99.90
19033;DHT22;9649;51.042;13.804;2023-05-19T14:30:22;26.00;99.90
19033;DHT22;9649;51.042;13.804;2023-05-19T14:35:26;25.90;99.90
19033;DHT22;9649;51.042;13.804;2023-05-19T14:40:29;24.80;99.90
19033;DHT22;9649;51.042;13.804;2023-05-19T14:45:33;24.10;99.90
19033;DHT22;9649;51.042;13.804;2023-05-19T14:50:36;24.20;99.90
19033;DHT22;9649;51.042;13.804;2023-05-19T14:55:39;23.90;99.90
19033;DHT22;9649;51.042;13.804;2023-05-19T15:00:43;23.50;99.90
19033;DHT22;9649;51.042;13.804;2023-05-19T15:05:46;23.40;99.90
19033;DHT22;9649;51.042;13.804;2023-05-19T15:10:49;25.10;99.90
19033;DHT22;9649;51.042;13.804;2023-05-19T15:15:54;25.50;99.90
19033;DHT22;9649;51.042;13.804;2023-05-19T15:21:16;23.90;99.90
19033;DHT22;9649;51.042;13.804;2023-05-19T15:26:19;23.50;99.90
19033;DHT22;9649;51.042;13.804;2023-05-19T15:31:23;23.10;99.90
19033;DHT22;9649;51.042;13.804;2023-05-19T15:36:26;22.80;99.90
19033;DHT22;9649;51.042;13.804;2023-05-19T15:41:28;22.10;1.00
19033;DHT22;9649;51.042;13.804;2023-05-19T15:46:33;21.60;1.00
19033;DHT22;9649;51.042;13.804;2023-05-19T15:51:38;21.20;1.00
19033;DHT22;9649;51.042;13.804;2023-05-19T15:56:42;21.10;1.00
19033;DHT22;9649;51.042;13.804;2023-05-19T16:01:46;21.10;1.00
19033;DHT22;9649;51.042;13.804;2023-05-19T16:06:53;20.80;1.00
19033;DHT22;9649;51.042;13.804;2023-05-19T16:11:56;20.90;1.00
19033;DHT22;9649;51.042;13.804;2023-05-19T16:17:01;20.60;1.00
19033;DHT22;9649;51.042;13.804;2023-05-19T16:22:05;19.90;1.00
19033;DHT22;9649;51.042;13.804;2023-05-19T16:27:09;19.50;1.00
19033;DHT22;9649;51.042;13.804;2023-05-19T16:32:14;19.20;1.00
19033;DHT22;9649;51.042;13.804;2023-05-19T16:37:17;19.00;27.60
19033;DHT22;9649;51.042;13.804;2023-05-19T16:48:20;18.30;99.90
19033;DHT22;9649;51.042;13.804;2023-05-19T16:53:29;18.10;99.90
19033;DHT22;9649;51.042;13.804;2023-05-19T16:58:32;18.20;1.00
19033;DHT22;9649;51.042;13.804;2023-05-19T17:03:37;18.20;1.00
19033;DHT22;9649;51.042;13.804;2023-05-19T17:08:39;18.20;1.00
19033;DHT22;9649;51.042;13.804;2023-05-19T17:13:42;18.20;1.00
19033;DHT22;9649;51.042;13.804;2023-05-19T17:18:48;18.10;1.00
19033;DHT22;9649;51.042;13.804;2023-05-19T17:23:51;18.00;1.00
19033;DHT22;9649;51.042;13.804;2023-05-19T17:28:54;17.90;1.00
19033;DHT22;9649;51.042;13.804;2023-05-19T17:33:58;17.60;1.00
19033;DHT22;9649;51.042;13.804;2023-05-19T17:39:00;17.30;1.00
19033;DHT22;9649;51.042;13.804;2023-05-19T17:44:04;17.20;99.90
19033;DHT22;9649;51.042;13.804;2023-05-19T17:49:09;17.10;99.90
19033;DHT22;9649;51.042;13.804;2023-05-19T17:54:14;17.00;99.90
19033;DHT22;9649;51.042;13.804;2023-05-19T17:59:17;17.00;99.90
19033;DHT22;9649;51.042;13.804;2023-05-19T18:04:21;16.90;1.00
19033;DHT22;9649;51.042;13.804;2023-05-19T18:09:28;16.80;1.00
19033;DHT22;9649;51.042;13.804;2023-05-19T18:14:31;17.00;1.00
19033;DHT22;9649;51.042;13.804;2023-05-19T18:19:35;17.00;1.00
19033;DHT22;9649;51.042;13.804;2023-05-19T18:24:38;16.80;1.00
19033;DHT22;9649;51.042;13.804;2023-05-19T18:29:41;16.70;1.00
19033;DHT22;9649;51.042;13.804;2023-05-19T18:34:48;16.50;1.00
19033;DHT22;9649;51.042;13.804;2023-05-19T18:39:51;16.50;1.00
19033;DHT22;9649;51.042;13.804;2023-05-19T18:44:54;16.40;99.90
19033;DHT22;9649;51.042;13.804;2023-05-19T18:49:58;16.20;99.90
19033;DHT22;9649;51.042;13.804;2023-05-19T18:55:01;16.00;1.00
19033;DHT22;9649;51.042;13.804;2023-05-19T19:00:05;15.90;1.00
19033;DHT22;9649;51.042;13.804;2023-05-19T19:05:09;15.80;1.00
19033;DHT22;9649;51.042;13.804;2023-05-19T19:10:14;15.70;1.00
19033;DHT22;9649;51.042;13.804;2023-05-19T19:15:17;15.70;1.00
19033;DHT22;9649;51.042;13.804;2023-05-19T19:20:21;15.60;1.00
19033;DHT22;9649;51.042;13.804;2023-05-19T19:25:24;15.60;1.00
19033;DHT22;9649;51.042;13.804;2023-05-19T19:30:28;15.50;99.90
19033;DHT22;9649;51.042;13.804;2023-05-19T19:35:32;15.50;1.00
19033;DHT22;9649;51.042;13.804;2023-05-19T19:40:35;15.40;1.00
19033;DHT22;9649;51.042;13.804;2023-05-19T19:45:41;15.40;1.00
19033;DHT22;9649;51.042;13.804;2023-05-19T19:50:45;15.30;90.40
19033;DHT22;9649;51.042;13.804;2023-05-19T19:55:57;15.40;1.00
19033;DHT22;9649;51.042;13.804;2023-05-19T20:01:01;15.30;1.00
19033;DHT22;9649;51.042;13.804;2023-05-19T20:06:06;15.20;1.00
19033;DHT22;9649;51.042;13.804;2023-05-19T20:11:09;15.10;1.00
19033;DHT22;9649;51.042;13.804;2023-05-19T20:16:16;15.00;1.00
19033;DHT22;9649;51.042;13.804;2023-05-19T20:21:20;14.90;1.00
19033;DHT22;9649;51.042;13.804;2023-05-19T20:26:22;14.90;1.00
19033;DHT22;9649;51.042;13.804;2023-05-19T20:31:26;14.90;1.00
19033;DHT22;9649;51.042;13.804;2023-05-19T20:36:30;14.90;1.00
19033;DHT22;9649;51.042;13.804;2023-05-19T20:41:32;14.90;1.00
19033;DHT22;9649;51.042;13.804;2023-05-19T20:46:35;14.80;1.00
19033;DHT22;9649;51.042;13.804;2023-05-19T20:51:39;14.80;99.90
19033;DHT22;9649;51.042;13.804;2023-05-19T20:56:42;14.70;1.00
19033;DHT22;9649;51.042;13.804;2023-05-19T21:01:45;14.80;99.90
19033;DHT22;9649;51.042;13.804;2023-05-19T21:06:49;14.70;99.90
19033;DHT22;9649;51.042;13.804;2023-05-19T21:11:52;14.70;1.00
19033;DHT22;9649;51.042;13.804;2023-05-19T21:16:55;14.70;1.00
19033;DHT22;9649;51.042;13.804;2023-05-19T21:21:59;14.50;99.90
19033;DHT22;9649;51.042;13.804;2023-05-19T21:27:03;14.50;1.00
19033;DHT22;9649;51.042;13.804;2023-05-19T21:32:06;14.30;1.00
19033;DHT22;9649;51.042;13.804;2023-05-19T21:37:10;14.30;1.00
19033;DHT22;9649;51.042;13.804;2023-05-19T21:42:13;14.30;1.00
19033;DHT22;9649;51.042;13.804;2023-05-19T21:47:16;14.50;1.00
19033;DHT22;9649;51.042;13.804;2023-05-19T21:52:20;14.30;1.00
19033;DHT22;9649;51.042;13.804;2023-05-19T21:57:23;14.40;1.00
19033;DHT22;9649;51.042;13.804;2023-05-19T22:02:26;14.30;1.00
19033;DHT22;9649;51.042;13.804;2023-05-19T22:07:30;14.30;99.90
19033;DHT22;9649;51.042;13.804;2023-05-19T22:12:33;14.20;99.90
19033;DHT22;9649;51.042;13.804;2023-05-19T22:17:35;14.20;99.90
19033;DHT22;9649;51.042;13.804;2023-05-19T22:22:40;14.30;99.90
19033;DHT22;9649;51.042;13.804;2023-05-19T22:27:42;14.40;25.40
19033;DHT22;9649;51.042;13.804;2023-05-19T22:32:45;14.30;99.90
19033;DHT22;9649;51.042;13.804;2023-05-19T22:37:49;14.20;1.00
19033;DHT22;9649;51.042;13.804;2023-05-19T22:42:52;14.20;1.00
19033;DHT22;9649;51.042;13.804;2023-05-19T22:47:55;14.20;1.00
19033;DHT22;9649;51.042;13.804;2023-05-19T22:52:59;14.10;1.00
19033;DHT22;9649;51.042;13.804;2023-05-19T22:58:02;14.20;1.00
19033;DHT22;9649;51.042;13.804;2023-05-19T23:03:04;14.10;1.00
19033;DHT22;9649;51.042;13.804;2023-05-19T23:08:09;14.10;1.00
19033;DHT22;9649;51.042;13.804;2023-05-19T23:13:11;14.20;1.00
19033;DHT22;9649;51.042;13.804;2023-05-19T23:18:14;14.10;1.00
19033;DHT22;9649;51.042;13.804;2023-05-19T23:23:18;14.00;99.90
19033;DHT22;9649;51.042;13.804;2023-05-19T23:28:21;14.00;99.90
19033;DHT22;9649;51.042;13.804;2023-05-19T23:33:24;13.90;99.90
19033;DHT22;9649;51.042;13.804;2023-05-19T23:38:28;14.00;99.90
19033;DHT22;9649;51.042;13.804;2023-05-19T23:43:31;13.80;99.90
19033;DHT22;9649;51.042;13.804;2023-05-19T23:48:34;13.60;1.00
19033;DHT22;9649;51.042;13.804;2023-05-19T23:53:38;13.40;1.00
19033;DHT22;9649;51.042;13.804;2023-05-19T23:58:41;13.00;1.00
